createdAt,value
2023-03-22T00:01:59.300Z,44.02
2023-03-22T00:04:29.498Z,43.65
2023-03-22T00:07:02.023Z,43.99
2023-03-22T00:09:32.967Z,43.94
2023-03-22T00:12:03.265Z,43.83
2023-03-22T00:14:33.748Z,44.08
2023-03-22T00:17:04.172Z,44.16
2023-03-22T00:19:34.384Z,44.00
2023-03-22T00:22:07.374Z,43.77
2023-03-22T00:24:38.120Z,44.02
2023-03-22T00:27:08.628Z,44.07
2023-03-22T00:29:40.130Z,44.00
2023-03-22T00:32:10.205Z,43.89
2023-03-22T00:34:40.269Z,43.76
2023-03-22T00:37:12.598Z,43.87
2023-03-22T00:39:43.001Z,43.98
2023-03-22T00:42:13.707Z,44.43
2023-03-22T00:44:44.530Z,44.14
2023-03-22T00:47:14.751Z,43.99
2023-03-22T00:49:45.168Z,43.96
2023-03-22T00:52:17.290Z,44.33
2023-03-22T00:54:52.439Z,43.78
2023-03-22T00:57:23.062Z,44.17
2023-03-22T00:59:54.198Z,43.73
2023-03-22T01:02:29.978Z,44.13
2023-03-22T01:05:00.259Z,44.01
2023-03-22T01:07:32.190Z,43.98
2023-03-22T01:10:02.837Z,43.67
2023-03-22T01:12:33.522Z,43.73
2023-03-22T01:15:04.112Z,43.86
2023-03-22T01:17:34.692Z,44.32
2023-03-22T01:20:07.240Z,43.91
2023-03-22T01:22:39.204Z,43.98
2023-03-22T01:25:10.938Z,44.00
2023-03-22T01:27:41.542Z,43.85
2023-03-22T01:30:13.757Z,43.78
2023-03-22T01:32:44.498Z,44.15
2023-03-22T01:35:14.874Z,43.81
2023-03-22T01:37:46.785Z,44.11
2023-03-22T01:40:17.673Z,43.95
2023-03-22T01:42:47.896Z,43.80
2023-03-22T01:45:39.907Z,44.30
2023-03-22T01:48:24.166Z,44.19
2023-03-22T01:51:10.078Z,43.95
2023-03-22T01:53:48.365Z,43.99
2023-03-22T01:56:22.015Z,44.08
2023-03-22T01:58:55.260Z,43.81
2023-03-22T02:01:27.659Z,43.97
2023-03-22T02:04:04.031Z,44.18
2023-03-22T02:06:34.395Z,43.91
2023-03-22T02:09:08.781Z,44.30
2023-03-22T02:11:43.192Z,44.03
2023-03-22T02:14:43.319Z,44.10
2023-03-22T02:17:31.792Z,44.22
2023-03-22T02:21:03.729Z,44.07
2023-03-22T02:24:30.144Z,44.29
2023-03-22T02:27:46.900Z,44.28
2023-03-22T02:31:05.585Z,44.26
2023-03-22T02:34:09.194Z,44.53
2023-03-22T02:37:30.101Z,44.31
2023-03-22T02:40:10.445Z,44.22
2023-03-22T02:42:57.756Z,44.43
2023-03-22T02:45:37.625Z,44.08
2023-03-22T02:48:15.336Z,43.98
2023-03-22T02:50:54.333Z,44.14
2023-03-22T02:53:31.558Z,44.30
2023-03-22T02:56:07.487Z,44.16
2023-03-22T02:58:46.344Z,44.13
2023-03-22T03:01:24.971Z,44.28
2023-03-22T03:04:01.411Z,44.27
2023-03-22T03:06:40.312Z,44.30
2023-03-22T03:09:22.760Z,44.29
2023-03-22T03:11:56.400Z,44.38
2023-03-22T03:14:29.062Z,44.31
2023-03-22T03:17:21.670Z,44.33
2023-03-22T03:20:12.518Z,44.15
2023-03-22T03:22:59.649Z,43.93
2023-03-22T03:25:44.121Z,44.10
2023-03-22T03:28:30.541Z,44.30
2023-03-22T03:31:09.624Z,43.94
2023-03-22T03:33:48.032Z,43.87
2023-03-22T03:36:22.596Z,44.37
2023-03-22T03:38:57.321Z,44.62
2023-03-22T03:41:32.895Z,44.33
2023-03-22T03:44:06.580Z,44.38
2023-03-22T03:46:37.702Z,44.62
2023-03-22T03:49:10.962Z,43.96
2023-03-22T03:51:52.591Z,44.64
2023-03-22T03:54:24.197Z,44.45
2023-03-22T03:56:54.948Z,44.25
2023-03-22T03:59:27.109Z,44.06
2023-03-22T04:01:57.335Z,44.15
2023-03-22T04:04:30.043Z,44.45
2023-03-22T04:07:04.049Z,44.63
2023-03-22T04:09:37.195Z,44.52
2023-03-22T04:12:09.974Z,44.54
2023-03-22T04:14:42.444Z,44.12
2023-03-22T04:17:13.327Z,44.77
2023-03-22T04:19:45.078Z,44.28
2023-03-22T04:22:18.769Z,44.66
2023-03-22T04:24:50.929Z,44.88
2023-03-22T04:27:23.987Z,44.68
2023-03-22T04:29:56.720Z,44.38
2023-03-22T04:32:26.886Z,44.61
2023-03-22T04:34:57.246Z,44.63
2023-03-22T04:37:28.217Z,44.14
2023-03-22T04:39:58.635Z,44.30
2023-03-22T04:42:28.976Z,44.46
2023-03-22T04:45:01.531Z,44.65
2023-03-22T04:47:31.939Z,44.62
2023-03-22T04:50:02.435Z,44.40
2023-03-22T04:52:32.958Z,44.30
2023-03-22T04:55:03.556Z,44.64
2023-03-22T04:57:35.598Z,44.27
2023-03-22T05:00:10.642Z,44.52
2023-03-22T05:02:41.734Z,44.58
2023-03-22T05:05:12.430Z,44.24
2023-03-22T05:07:43.225Z,44.32
2023-03-22T05:10:14.276Z,44.63
2023-03-22T05:12:44.689Z,44.44
2023-03-22T05:15:17.248Z,44.57
2023-03-22T05:17:47.616Z,44.19
2023-03-22T05:20:17.531Z,44.67
2023-03-22T05:22:50.969Z,44.31
2023-03-22T05:25:21.461Z,44.97
2023-03-22T05:27:54.728Z,44.67
2023-03-22T05:30:26.736Z,45.00
2023-03-22T05:33:03.553Z,44.58
2023-03-22T05:35:35.043Z,44.75
2023-03-22T05:38:05.839Z,45.14
2023-03-22T05:40:36.751Z,44.93
2023-03-22T05:43:07.451Z,44.74
2023-03-22T05:45:41.662Z,44.93
2023-03-22T05:48:12.139Z,45.07
2023-03-22T05:50:41.980Z,45.01
2023-03-22T05:53:12.556Z,45.09
2023-03-22T05:55:42.532Z,45.09
2023-03-22T05:58:13.396Z,45.14
2023-03-22T06:00:45.349Z,44.87
2023-03-22T06:03:18.665Z,44.47
2023-03-22T06:05:51.394Z,44.78
2023-03-22T06:08:21.769Z,45.03
2023-03-22T06:10:52.899Z,44.58
2023-03-22T06:13:24.386Z,44.83
2023-03-22T06:15:58.582Z,44.75
2023-03-22T06:18:28.439Z,44.31
2023-03-22T06:20:59.178Z,44.27
2023-03-22T06:23:30.295Z,44.63
2023-03-22T06:26:00.371Z,44.68
2023-03-22T06:28:39.525Z,44.49
2023-03-22T06:31:13.259Z,44.58
2023-03-22T06:33:43.263Z,44.35
2023-03-22T06:36:13.598Z,44.28
2023-03-22T06:38:44.250Z,44.61
2023-03-22T06:41:14.490Z,44.39
2023-03-22T06:43:45.278Z,44.30
2023-03-22T06:46:18.032Z,44.52
2023-03-22T06:48:48.212Z,44.56
2023-03-22T06:51:18.478Z,44.51
2023-03-22T06:53:48.707Z,44.76
2023-03-22T06:56:18.436Z,44.61
2023-03-22T06:58:49.531Z,44.20
2023-03-22T07:01:22.258Z,44.53
2023-03-22T07:03:52.874Z,44.15
2023-03-22T07:06:23.243Z,44.38
2023-03-22T07:08:53.438Z,44.35
2023-03-22T07:11:24.030Z,44.17
2023-03-22T07:13:54.942Z,44.27
2023-03-22T07:16:28.503Z,44.00
2023-03-22T07:18:59.401Z,43.98
2023-03-22T07:21:29.711Z,44.15
2023-03-22T07:24:00.191Z,43.96
2023-03-22T07:26:30.982Z,43.90
2023-03-22T07:29:03.296Z,43.97
2023-03-22T07:31:38.295Z,44.00
2023-03-22T07:34:09.269Z,43.88
2023-03-22T07:36:40.567Z,43.91
2023-03-22T07:39:11.333Z,44.01
2023-03-22T07:41:43.552Z,43.76
2023-03-22T07:44:18.038Z,43.78
2023-03-22T07:46:52.121Z,43.47
2023-03-22T07:49:22.673Z,43.61
2023-03-22T07:51:53.421Z,43.57
2023-03-22T07:54:33.368Z,43.51
2023-03-22T07:57:04.927Z,43.51
2023-03-22T07:59:36.613Z,43.41
2023-03-22T08:02:16.699Z,43.31
2023-03-22T08:04:53.919Z,43.26
2023-03-22T08:07:28.817Z,43.21
2023-03-22T08:09:59.882Z,43.13
2023-03-22T08:12:30.553Z,43.22
2023-03-22T08:15:01.181Z,43.24
2023-03-22T08:17:33.865Z,43.16
2023-03-22T08:20:09.610Z,43.33
2023-03-22T08:22:39.622Z,43.27
2023-03-22T08:25:11.483Z,43.17
2023-03-22T08:27:42.097Z,43.26
2023-03-22T08:30:15.587Z,43.37
2023-03-22T08:32:47.566Z,43.13
2023-03-22T08:35:18.238Z,42.99
2023-03-22T08:37:49.395Z,42.89
2023-03-22T08:40:19.681Z,43.06
2023-03-22T08:42:49.579Z,43.06
2023-03-22T08:45:20.617Z,43.08
2023-03-22T08:47:52.626Z,43.08
2023-03-22T08:50:23.816Z,42.68
2023-03-22T08:52:54.228Z,42.74
2023-03-22T08:55:25.435Z,42.65
2023-03-22T08:57:59.422Z,42.75
2023-03-22T09:00:39.285Z,42.70
2023-03-22T09:03:20.356Z,42.54
2023-03-22T09:05:50.590Z,42.47
2023-03-22T09:08:21.151Z,42.46
2023-03-22T09:10:52.299Z,42.65
2023-03-22T09:13:24.006Z,42.45
2023-03-22T09:15:55.102Z,42.39
2023-03-22T09:18:28.031Z,42.36
2023-03-22T09:20:58.522Z,42.44
2023-03-22T09:23:29.395Z,42.49
2023-03-22T09:26:02.745Z,42.36
2023-03-22T09:28:34.240Z,42.17
2023-03-22T09:31:04.620Z,42.33
2023-03-22T09:33:38.710Z,41.95
2023-03-22T09:36:09.939Z,41.89
2023-03-22T09:38:41.523Z,41.81
2023-03-22T09:41:20.804Z,41.94
2023-03-22T09:43:57.562Z,42.10
2023-03-22T09:46:34.617Z,41.94
2023-03-22T09:49:13.868Z,42.04
2023-03-22T09:51:50.169Z,42.20
2023-03-22T09:54:35.741Z,41.99
2023-03-22T09:57:16.157Z,41.96
2023-03-22T09:59:59.135Z,41.75
2023-03-22T10:02:55.104Z,41.91
2023-03-22T10:05:37.899Z,41.74
2023-03-22T10:08:42.459Z,41.61
2023-03-22T10:11:27.563Z,41.85
2023-03-22T10:14:07.267Z,41.70
2023-03-22T10:16:40.373Z,41.81
2023-03-22T10:19:22.152Z,42.00
2023-03-22T10:21:58.530Z,41.91
2023-03-22T10:24:34.635Z,41.77
2023-03-22T10:27:06.380Z,41.71
2023-03-22T10:29:41.599Z,41.59
2023-03-22T10:32:19.097Z,41.28
2023-03-22T10:34:49.920Z,41.55
2023-03-22T10:37:27.109Z,41.32
2023-03-22T10:40:01.079Z,41.24
2023-03-22T10:42:34.524Z,41.42
2023-03-22T10:45:10.097Z,41.37
2023-03-22T10:47:45.805Z,41.66
2023-03-22T10:50:23.991Z,41.42
2023-03-22T10:53:06.080Z,41.46
2023-03-22T10:55:42.686Z,41.03
2023-03-22T10:58:17.843Z,40.94
2023-03-22T11:00:50.460Z,41.18
2023-03-22T11:03:32.923Z,41.10
2023-03-22T11:06:12.087Z,41.11
2023-03-22T11:08:47.645Z,40.83
2023-03-22T11:11:24.805Z,40.77
2023-03-22T11:14:02.017Z,40.96
2023-03-22T11:16:34.785Z,40.84
2023-03-22T11:19:06.495Z,40.50
2023-03-22T11:21:36.949Z,40.94
2023-03-22T11:24:12.743Z,40.76
2023-03-22T11:26:45.409Z,41.00
2023-03-22T11:29:21.010Z,40.89
2023-03-22T11:32:01.165Z,41.27
2023-03-22T11:34:34.197Z,40.69
2023-03-22T11:37:09.622Z,41.06
2023-03-22T11:39:50.465Z,40.64
2023-03-22T11:42:23.846Z,40.83
2023-03-22T11:44:58.998Z,40.76
2023-03-22T11:47:40.655Z,40.91
2023-03-22T11:50:28.219Z,40.59
2023-03-22T11:52:58.805Z,40.94
2023-03-22T11:55:33.901Z,41.13
2023-03-22T11:58:06.100Z,40.61
2023-03-22T12:00:41.229Z,40.84
2023-03-22T12:03:18.498Z,40.78
2023-03-22T12:05:53.506Z,40.93
2023-03-22T12:08:36.889Z,40.69
2023-03-22T12:11:15.850Z,40.80
2023-03-22T12:13:54.382Z,40.59
2023-03-22T12:16:30.406Z,40.67
2023-03-22T12:19:15.838Z,40.66
2023-03-22T12:21:49.593Z,40.79
2023-03-22T12:24:30.637Z,40.74
2023-03-22T12:27:11.913Z,40.59
2023-03-22T12:29:48.193Z,40.43
2023-03-22T12:32:25.724Z,40.61
2023-03-22T12:35:05.411Z,40.58
2023-03-22T12:37:51.964Z,40.58
2023-03-22T12:40:29.139Z,40.51
2023-03-22T12:43:13.992Z,40.65
2023-03-22T12:45:53.531Z,40.61
2023-03-22T12:48:39.015Z,40.62
2023-03-22T12:51:13.414Z,40.47
2023-03-22T12:53:49.653Z,40.54
2023-03-22T12:56:23.953Z,40.44
2023-03-22T12:59:04.039Z,40.47
2023-03-22T13:01:42.160Z,40.39
2023-03-22T13:04:48.557Z,40.40
2023-03-22T13:07:36.496Z,40.57
2023-03-22T13:11:13.646Z,40.78
2023-03-22T13:13:50.352Z,40.54
2023-03-22T13:16:44.374Z,40.50
2023-03-22T13:19:32.437Z,40.36
2023-03-22T13:22:24.604Z,40.52
2023-03-22T13:25:08.117Z,40.54
2023-03-22T13:27:52.624Z,40.81
2023-03-22T13:30:33.005Z,40.59
2023-03-22T13:33:21.605Z,40.49
2023-03-22T13:35:57.164Z,40.49
2023-03-22T13:38:31.877Z,40.52
2023-03-22T13:41:08.777Z,40.30
2023-03-22T13:43:48.432Z,40.42
2023-03-22T13:46:53.264Z,40.40
2023-03-22T13:49:53.566Z,40.49
2023-03-22T13:52:37.860Z,40.51
2023-03-22T13:55:43.939Z,40.44
2023-03-22T13:58:37.185Z,40.66
2023-03-22T14:01:16.173Z,40.64
2023-03-22T14:03:51.069Z,40.74
2023-03-22T14:06:29.240Z,40.71
2023-03-22T14:09:06.537Z,40.36
2023-03-22T14:11:47.080Z,40.63
2023-03-22T14:14:23.969Z,40.68
2023-03-22T14:17:01.073Z,40.57
2023-03-22T14:19:36.458Z,40.74
